Time;durP1;ratioP1;P1;durP2;ratioP2;P2;SDS_P1;SDS_P2;PMS_P1;PMS_P2;Temp;Humidity;BMP_temperature;BMP_pressure;BME280_temperature;BME280_humidity;BME280_pressure;Samples;Min_cycle;Max_cycle;Signal;HPM_P1;HPM_P2
2023/10/19 00:00:51;;;;;;;21.83;13.55;;;7.20;99.90;;;;;;5055587;28;20029;-64
2023/10/19 00:03:18;;;;;;;19.90;13.75;;;7.20;99.90;;;;;;5057370;28;20028;-64
2023/10/19 00:05:45;;;;;;;21.73;14.40;;;;;;;;;;5077526;28;20039;-64
2023/10/19 00:08:20;;;;;;;20.00;13.75;;;7.10;99.90;;;;;;5077727;28;20114;-64
2023/10/19 00:11:02;;;;;;;18.75;13.48;;;7.10;99.90;;;;;;5059678;28;20085;-64
2023/10/19 00:13:29;;;;;;;21.92;14.38;;;7.10;99.90;;;;;;5077513;28;20033;-64
2023/10/19 00:15:57;;;;;;;19.45;14.45;;;7.10;99.90;;;;;;5059495;28;20027;-64
2023/10/19 00:18:24;;;;;;;20.38;14.98;;;7.10;99.90;;;;;;5077322;28;20028;-64
2023/10/19 00:21:18;;;;;;;22.40;14.10;;;7.20;99.90;;;;;;5077741;28;20032;-64
2023/10/19 00:23:47;;;;;;;17.33;13.40;;;7.20;99.90;;;;;;5077439;28;20029;-64
2023/10/19 00:26:19;;;;;;;20.17;13.85;;;7.20;99.90;;;;;;5077087;28;20028;-64
2023/10/19 00:28:49;;;;;;;22.55;13.82;;;7.20;99.90;;;;;;5059664;28;20119;-64
2023/10/19 00:31:15;;;;;;;20.00;13.73;;;7.30;99.90;;;;;;5059270;28;20479;-64
2023/10/19 00:33:40;;;;;;;19.92;14.38;;;7.30;99.90;;;;;;5076742;28;20045;-64
2023/10/19 00:36:07;;;;;;;21.42;14.40;;;7.30;99.90;;;;;;5058983;28;20140;-64
2023/10/19 00:38:52;;;;;;;20.95;14.00;;;7.40;99.90;;;;;;5076861;28;20032;-64
2023/10/19 00:41:27;;;;;;;21.80;13.60;;;7.40;99.90;;;;;;5076478;28;20493;-63
2023/10/19 00:44:11;;;;;;;20.75;13.30;;;7.50;99.90;;;;;;5059019;28;20032;-64
2023/10/19 00:49:05;;;;;;;23.73;14.25;;;7.60;99.90;;;;;;5076671;28;20174;-63
2023/10/19 00:54:16;;;;;;;21.10;13.48;;;7.70;99.90;;;;;;5076811;28;20439;-63
2023/10/19 00:56:51;;;;;;;20.50;13.40;;;7.70;99.90;;;;;;5058657;28;20082;-64
2023/10/19 00:59:22;;;;;;;20.35;13.45;;;7.70;99.90;;;;;;5076714;28;20028;-64
2023/10/19 01:01:50;;;;;;;19.33;13.27;;;7.70;99.90;;;;;;5076793;28;20105;-64
2023/10/19 01:04:22;;;;;;;22.20;14.23;;;7.80;99.90;;;;;;5076448;28;20090;-64
2023/10/19 01:07:00;;;;;;;20.10;13.82;;;7.80;99.90;;;;;;5058408;28;20059;-64
2023/10/19 01:09:34;;;;;;;19.38;13.80;;;7.80;99.90;;;;;;5076388;28;20081;-64
2023/10/19 01:12:21;;;;;;;20.70;13.63;;;7.80;99.90;;;;;;5076494;28;20060;-63
2023/10/19 01:15:29;;;;;;;21.15;13.75;;;7.80;99.90;;;;;;5057628;28;20119;-64
2023/10/19 01:17:56;;;;;;;20.83;14.47;;;7.80;99.90;;;;;;5057992;28;20040;-64
2023/10/19 01:25:58;;;;;;;22.80;14.85;;;7.90;99.90;;;;;;5075883;28;20028;-65
2023/10/19 01:31:15;;;;;;;20.90;14.32;;;7.90;99.90;;;;;;5076074;28;20162;-64
2023/10/19 01:33:41;;;;;;;22.27;14.50;;;7.90;99.90;;;;;;5090381;28;20050;-64
2023/10/19 01:36:11;;;;;;;23.65;15.13;;;7.90;99.90;;;;;;5096416;28;20058;-64
2023/10/19 01:38:38;;;;;;;19.83;14.68;;;7.90;99.90;;;;;;5095104;28;20082;-64
2023/10/19 01:41:18;;;;;;;23.67;15.23;;;7.90;99.90;;;;;;5094912;28;20047;-64
2023/10/19 01:43:46;;;;;;;21.63;15.32;;;7.90;99.90;;;;;;5096601;28;20416;-64
2023/10/19 01:46:21;;;;;;;23.23;15.45;;;8.00;99.90;;;;;;5096889;28;20074;-64
2023/10/19 01:48:54;;;;;;;21.20;15.98;;;7.90;99.90;;;;;;5095684;28;20031;-64
2023/10/19 01:51:22;;;;;;;22.23;15.80;;;8.00;99.90;;;;;;5096412;28;20454;-64
2023/10/19 01:53:48;;;;;;;20.02;15.38;;;8.00;99.90;;;;;;5095812;28;20024;-64
2023/10/19 01:56:16;;;;;;;20.05;15.15;;;8.10;99.90;;;;;;5095714;28;20478;-65
2023/10/19 01:58:43;;;;;;;23.27;15.60;;;8.10;99.90;;;;;;5095704;28;20118;-64
2023/10/19 02:03:44;;;;;;;;;;;8.00;99.90;;;;;;5095883;28;20034;-64
2023/10/19 02:06:20;;;;;;;21.02;14.07;;;8.00;99.90;;;;;;5095736;28;19970;-64
2023/10/19 02:09:09;;;;;;;21.83;15.85;;;8.00;99.90;;;;;;5095453;28;20024;-64
2023/10/19 02:11:37;;;;;;;25.55;17.10;;;8.00;99.90;;;;;;5095792;28;20035;-64
2023/10/19 02:14:13;;;;;;;24.55;16.95;;;7.90;99.90;;;;;;5095396;28;20035;-64
2023/10/19 02:16:39;;;;;;;23.75;16.45;;;7.90;99.90;;;;;;5095665;28;20031;-64
2023/10/19 02:19:05;;;;;;;25.95;18.17;;;7.90;99.90;;;;;;5095181;28;20035;-64
2023/10/19 02:21:30;;;;;;;22.40;17.05;;;7.80;99.90;;;;;;5095468;28;20033;-63
2023/10/19 02:23:59;;;;;;;25.63;16.70;;;7.90;99.90;;;;;;5095233;28;20202;-64
2023/10/19 02:26:30;;;;;;;22.13;16.40;;;7.80;99.90;;;;;;5093813;28;20474;-64
2023/10/19 02:28:57;;;;;;;21.90;16.30;;;7.90;99.90;;;;;;5095352;28;20032;-64
2023/10/19 02:31:24;;;;;;;25.00;17.50;;;7.80;99.90;;;;;;5095038;28;20060;-64
2023/10/19 02:34:00;;;;;;;24.48;17.80;;;7.80;99.90;;;;;;5075086;28;20041;-64
2023/10/19 02:36:30;;;;;;;25.58;18.05;;;7.80;99.90;;;;;;5057149;28;20029;-66
2023/10/19 02:39:07;;;;;;;23.35;16.85;;;7.70;99.90;;;;;;5075339;28;20094;-64
2023/10/19 02:41:37;;;;;;;25.52;18.73;;;7.70;99.90;;;;;;5057473;28;20035;-69
2023/10/19 02:46:42;;;;;;;27.45;19.23;;;7.60;99.90;;;;;;5076362;28;20051;-65
2023/10/19 02:49:11;;;;;;;28.52;19.52;;;7.60;99.90;;;;;;5075656;28;20068;-64
2023/10/19 02:51:38;;;;;;;26.98;18.95;;;7.70;99.90;;;;;;5075099;28;20059;-64
2023/10/19 02:54:06;;;;;;;30.20;20.52;;;7.60;99.90;;;;;;5074322;28;20452;-65
2023/10/19 02:56:31;;;;;;;28.20;20.25;;;7.60;99.90;;;;;;5074374;28;20016;-65
2023/10/19 02:59:07;;;;;;;29.92;21.58;;;7.70;99.90;;;;;;5074684;28;20082;-64
2023/10/19 03:01:34;;;;;;;25.80;20.77;;;7.70;99.90;;;;;;5056740;28;20028;-64
2023/10/19 03:04:01;;;;;;;31.02;22.08;;;7.70;99.90;;;;;;5074189;28;20032;-63
2023/10/19 03:06:35;;;;;;;29.15;21.65;;;7.80;99.90;;;;;;5074176;28;20090;-64
2023/10/19 03:09:12;;;;;;;30.38;20.67;;;7.80;99.90;;;;;;5056163;28;20090;-63
2023/10/19 03:11:41;;;;;;;29.88;20.52;;;7.90;99.90;;;;;;5056954;28;20388;-63
2023/10/19 03:14:11;;;;;;;30.67;22.02;;;7.90;99.90;;;;;;5056165;28;20025;-64
2023/10/19 03:16:41;;;;;;;29.67;22.58;;;7.90;99.90;;;;;;5074349;28;20039;-64
2023/10/19 03:19:07;;;;;;;31.95;22.63;;;8.00;99.90;;;;;;5074238;28;20098;-63
2023/10/19 03:21:41;;;;;;;35.25;23.38;;;8.00;99.90;;;;;;5073928;28;20029;-63
2023/10/19 03:24:15;;;;;;;30.17;21.58;;;8.10;99.90;;;;;;5074389;28;20174;-64
2023/10/19 03:26:48;;;;;;;31.33;22.38;;;8.20;99.90;;;;;;5073849;28;20028;-64
2023/10/19 03:29:15;;;;;;;33.47;21.25;;;8.20;99.90;;;;;;5074073;28;20052;-64
2023/10/19 03:31:43;;;;;;;32.05;23.05;;;8.30;99.90;;;;;;5073549;28;20476;-64
2023/10/19 03:34:13;;;;;;;32.20;22.60;;;8.30;99.90;;;;;;5074380;28;20028;-64
2023/10/19 03:36:39;;;;;;;30.33;21.73;;;8.40;99.90;;;;;;5073910;28;20078;-63
2023/10/19 03:39:12;;;;;;;33.47;23.05;;;8.40;99.90;;;;;;5073669;28;20037;-64
2023/10/19 03:41:42;;;;;;;29.75;21.75;;;8.40;99.90;;;;;;5074067;28;20435;-64
2023/10/19 03:44:13;;;;;;;;;;;8.50;99.90;;;;;;5074113;28;20036;-63
2023/10/19 03:46:52;;;;;;;31.60;22.02;;;8.50;99.90;;;;;;5073407;28;20365;-64
2023/10/19 03:49:21;;;;;;;28.67;21.70;;;8.50;99.90;;;;;;5073624;28;20039;-64
2023/10/19 03:52:19;;;;;;;29.17;20.98;;;8.60;99.90;;;;;;5073726;28;20388;-64
2023/10/19 03:54:46;;;;;;;31.60;21.85;;;8.60;99.90;;;;;;5073108;28;20091;-65
2023/10/19 03:57:19;;;;;;;27.25;20.45;;;8.60;99.90;;;;;;5073625;28;20031;-65
2023/10/19 03:59:49;;;;;;;30.30;21.23;;;8.60;99.90;;;;;;5073709;28;20353;-64
2023/10/19 04:02:20;;;;;;;28.83;20.67;;;8.70;99.90;;;;;;5055709;28;20354;-64
2023/10/19 04:04:48;;;;;;;28.25;20.92;;;8.70;99.90;;;;;;5073471;28;20039;-64
2023/10/19 04:07:21;;;;;;;27.15;20.83;;;8.70;99.90;;;;;;5073430;28;20025;-64
2023/10/19 04:10:30;;;;;;;27.23;20.45;;;8.80;99.90;;;;;;5073529;28;20056;-64
2023/10/19 04:12:43;;;;;;;33.53;20.27;;;8.80;99.90;;;;;;5062635;28;20076;-65
2023/10/19 04:17:36;;;;;;;28.50;21.70;;;8.80;99.90;;;;;;5073382;28;20111;-63
2023/10/19 04:20:26;;;;;;;29.08;20.50;;;8.80;99.90;;;;;;5073443;28;20032;-67
2023/10/19 04:22:53;;;;;;;27.65;20.60;;;8.80;99.90;;;;;;5074216;28;20025;-65
2023/10/19 04:25:20;;;;;;;27.67;20.13;;;8.80;99.90;;;;;;5055416;28;20028;-64
2023/10/19 04:27:47;;;;;;;30.40;20.77;;;8.80;99.90;;;;;;5073219;28;20035;-65
2023/10/19 04:30:17;;;;;;;25.55;20.17;;;8.80;99.90;;;;;;5073398;28;20528;-64
2023/10/19 04:32:45;;;;;;;29.65;20.67;;;8.80;99.90;;;;;;5073568;28;20037;-64
2023/10/19 04:35:13;;;;;;;28.00;20.33;;;8.80;99.90;;;;;;5073219;28;20036;-65
2023/10/19 04:37:42;;;;;;;31.75;21.33;;;8.80;99.90;;;;;;5055321;28;20476;-65
2023/10/19 04:40:11;;;;;;;30.73;21.65;;;8.80;99.90;;;;;;5073096;28;20040;-65
2023/10/19 04:42:39;;;;;;;;;;;8.80;99.90;;;;;;5074151;28;20021;-64
2023/10/19 04:45:06;;;;;;;27.10;19.38;;;8.90;99.90;;;;;;5054862;28;19904;-64
2023/10/19 04:47:35;;;;;;;28.05;19.90;;;8.90;99.90;;;;;;5055109;28;20091;-64
2023/10/19 04:50:02;;;;;;;27.95;20.40;;;8.90;99.90;;;;;;5073950;28;20058;-64
2023/10/19 04:52:27;;;;;;;31.17;22.75;;;8.90;99.90;;;;;;5076813;28;20457;-64
2023/10/19 04:54:54;;;;;;;30.95;22.77;;;8.90;99.90;;;;;;5076962;28;20035;-64
2023/10/19 04:57:20;;;;;;;31.02;22.15;;;8.90;99.90;;;;;;5076605;28;20056;-64
2023/10/19 04:59:46;;;;;;;32.08;22.17;;;9.00;99.90;;;;;;5058551;28;20021;-65
2023/10/19 05:02:13;;;;;;;30.48;20.60;;;9.00;99.90;;;;;;5076433;28;20025;-65
2023/10/19 05:04:38;;;;;;;31.40;21.52;;;9.00;99.90;;;;;;5076481;28;20020;-65
2023/10/19 05:07:04;;;;;;;26.92;20.80;;;9.00;99.90;;;;;;5076392;28;20020;-65
2023/10/19 05:09:31;;;;;;;33.40;23.30;;;9.00;99.90;;;;;;5076445;28;20059;-65
2023/10/19 05:11:57;;;;;;;29.67;21.75;;;9.00;99.90;;;;;;5076016;28;20036;-65
2023/10/19 05:14:24;;;;;;;32.05;21.83;;;9.10;99.90;;;;;;5058281;28;20029;-64
2023/10/19 05:16:49;;;;;;;31.42;20.02;;;9.10;99.90;;;;;;5058274;28;20487;-65
2023/10/19 05:19:16;;;;;;;26.67;20.35;;;9.10;99.90;;;;;;5058215;28;20036;-64
2023/10/19 05:21:43;;;;;;;31.85;22.48;;;9.10;99.90;;;;;;5076148;28;20029;-64
2023/10/19 05:24:09;;;;;;;29.13;21.85;;;9.10;99.90;;;;;;5057834;28;20029;-64
2023/10/19 05:26:34;;;;;;;29.63;20.02;;;9.10;99.90;;;;;;5058092;28;20079;-65
2023/10/19 05:29:00;;;;;;;28.92;21.08;;;9.10;99.90;;;;;;5075892;28;20032;-65
2023/10/19 05:31:28;;;;;;;28.20;20.60;;;9.10;99.90;;;;;;5076132;28;20090;-65
2023/10/19 05:33:53;;;;;;;28.45;20.92;;;9.10;99.90;;;;;;5076142;28;20093;-64
2023/10/19 05:36:19;;;;;;;30.55;20.98;;;9.20;99.90;;;;;;5075669;28;20116;-65
2023/10/19 05:38:45;;;;;;;27.38;19.85;;;9.10;99.90;;;;;;5057904;28;20028;-64
2023/10/19 05:41:11;;;;;;;27.05;19.55;;;9.10;99.90;;;;;;5057529;28;20388;-64
2023/10/19 05:43:38;;;;;;;29.75;21.77;;;9.20;99.90;;;;;;5058086;28;20036;-64
2023/10/19 05:46:04;;;;;;;30.23;20.60;;;9.20;99.90;;;;;;5075796;28;20449;-64
2023/10/19 05:48:30;;;;;;;27.90;20.80;;;9.20;99.90;;;;;;5075389;28;20036;-65
2023/10/19 05:50:56;;;;;;;28.48;21.33;;;9.20;99.90;;;;;;5075605;28;20031;-65
2023/10/19 05:53:22;;;;;;;27.63;20.90;;;9.20;99.90;;;;;;5075701;28;20016;-64
2023/10/19 05:55:49;;;;;;;32.10;21.77;;;9.20;99.90;;;;;;5075519;28;20029;-65
2023/10/19 05:58:15;;;;;;;31.42;20.75;;;9.30;99.90;;;;;;5075128;28;20024;-64
2023/10/19 06:00:42;;;;;;;36.70;23.05;;;9.30;99.90;;;;;;5075034;28;20028;-64
2023/10/19 06:03:07;;;;;;;31.30;21.35;;;9.40;99.90;;;;;;5057447;28;20024;-64
2023/10/19 06:05:33;;;;;;;25.08;20.42;;;9.40;99.90;;;;;;5057114;28;20021;-65
2023/10/19 06:07:59;;;;;;;28.00;20.73;;;9.40;99.90;;;;;;5075134;28;20032;-65
2023/10/19 06:10:27;;;;;;;28.35;19.65;;;9.50;99.90;;;;;;5074909;28;20454;-65
2023/10/19 06:12:53;;;;;;;25.23;20.15;;;9.50;99.90;;;;;;5075208;28;20479;-64
2023/10/19 06:15:23;;;;;;;26.77;19.92;;;9.60;99.90;;;;;;5075094;28;20029;-65
2023/10/19 06:17:49;;;;;;;27.20;19.30;;;9.70;99.90;;;;;;5057561;28;20028;-65
2023/10/19 06:20:25;;;;;;;28.60;19.83;;;9.80;99.90;;;;;;5057261;28;20031;-65
2023/10/19 06:22:56;;;;;;;26.85;19.20;;;9.80;99.90;;;;;;5058348;28;20521;-65
2023/10/19 06:25:24;;;;;;;28.33;20.50;;;9.90;99.90;;;;;;5075455;28;20530;-65
2023/10/19 06:27:50;;;;;;;27.08;19.45;;;10.00;99.90;;;;;;5057370;28;20472;-65
2023/10/19 06:30:18;;;;;;;24.77;19.35;;;10.00;99.90;;;;;;5075171;28;20057;-65
2023/10/19 06:32:55;;;;;;;28.27;20.02;;;10.10;99.90;;;;;;5073552;28;20551;-65
2023/10/19 06:35:21;;;;;;;28.48;19.33;;;10.20;99.90;;;;;;5095224;28;20077;-65
2023/10/19 06:37:48;;;;;;;29.08;19.63;;;10.10;99.90;;;;;;5095217;28;20069;-65
2023/10/19 06:40:16;;;;;;;24.85;18.80;;;10.20;99.90;;;;;;5094933;28;20020;-65
2023/10/19 06:42:43;;;;;;;25.45;19.45;;;10.20;99.90;;;;;;5094935;28;20063;-64
2023/10/19 06:45:13;;;;;;;24.70;19.25;;;10.20;99.90;;;;;;5094796;28;20120;-64
2023/10/19 06:47:42;;;;;;;24.85;19.33;;;10.30;99.90;;;;;;5093683;28;20510;-64
2023/10/19 06:50:10;;;;;;;27.90;20.02;;;10.30;99.90;;;;;;5094809;28;20032;-67
2023/10/19 06:52:36;;;;;;;24.10;18.77;;;10.40;99.90;;;;;;5094742;28;20028;-65
2023/10/19 06:55:04;;;;;;;24.25;19.08;;;10.40;99.90;;;;;;5093399;28;20028;-65
2023/10/19 06:57:32;;;;;;;27.42;20.00;;;10.30;99.90;;;;;;5094583;28;20036;-65
2023/10/19 06:59:59;;;;;;;24.40;19.23;;;10.40;99.90;;;;;;5094881;28;20111;-65
2023/10/19 07:02:26;;;;;;;24.60;19.17;;;10.40;99.90;;;;;;5094949;28;20024;-66
2023/10/19 07:04:52;;;;;;;23.92;18.35;;;10.40;99.90;;;;;;5095710;28;20161;-71
2023/10/19 07:07:18;;;;;;;25.50;19.00;;;10.30;99.90;;;;;;5095657;28;20110;-65
2023/10/19 07:09:43;;;;;;;25.98;19.05;;;10.40;99.90;;;;;;5095827;28;20020;-65
2023/10/19 07:12:10;;;;;;;27.13;20.70;;;10.40;99.90;;;;;;5094989;28;20032;-66
2023/10/19 07:14:35;;;;;;;28.20;21.40;;;10.50;99.90;;;;;;5095579;28;20020;-69
2023/10/19 07:17:01;;;;;;;30.05;20.00;;;10.50;99.90;;;;;;5095657;28;20463;-65
2023/10/19 07:19:29;;;;;;;28.50;21.20;;;10.50;99.90;;;;;;5093248;28;20035;-65
2023/10/19 07:21:57;;;;;;;29.05;20.35;;;10.50;99.90;;;;;;5094207;28;20027;-66
2023/10/19 07:24:24;;;;;;;30.90;20.80;;;10.60;99.90;;;;;;5094728;28;20020;-65
2023/10/19 07:26:53;;;;;;;29.02;22.02;;;10.60;99.90;;;;;;5094644;28;20031;-64
2023/10/19 07:29:20;;;;;;;30.23;22.90;;;10.70;99.90;;;;;;5092761;28;20035;-65
2023/10/19 07:31:46;;;;;;;32.63;22.27;;;10.60;99.90;;;;;;5091498;28;20093;-65
2023/10/19 07:34:15;;;;;;;28.88;22.30;;;10.50;99.90;;;;;;5056025;28;20444;-65
2023/10/19 07:36:42;;;;;;;31.15;22.48;;;10.50;99.90;;;;;;5073792;28;20060;-65
2023/10/19 07:39:13;;;;;;;30.98;21.63;;;10.50;99.90;;;;;;5073949;28;20055;-65
2023/10/19 07:41:40;;;;;;;29.70;21.60;;;10.50;99.90;;;;;;5073886;28;20021;-65
2023/10/19 07:44:06;;;;;;;28.50;21.45;;;10.50;99.90;;;;;;5073987;28;20029;-65
2023/10/19 07:46:31;;;;;;;33.03;22.42;;;10.60;99.90;;;;;;5073649;28;20028;-65
2023/10/19 07:48:59;;;;;;;28.88;22.17;;;10.60;99.90;;;;;;5073389;28;20032;-65
2023/10/19 07:51:25;;;;;;;31.67;22.23;;;10.70;99.90;;;;;;5055639;28;20035;-66
2023/10/19 07:53:51;;;;;;;38.15;23.55;;;10.70;99.90;;;;;;5055651;28;20020;-65
2023/10/19 07:56:17;;;;;;;32.30;22.30;;;10.70;99.90;;;;;;5055872;28;20075;-64
2023/10/19 07:58:43;;;;;;;29.75;21.85;;;10.70;99.90;;;;;;5073273;28;20032;-65
2023/10/19 08:01:08;;;;;;;27.30;21.95;;;10.80;99.90;;;;;;5073686;28;20082;-64
2023/10/19 08:03:35;;;;;;;29.50;22.15;;;10.80;99.90;;;;;;5073539;28;20032;-65
2023/10/19 08:06:01;;;;;;;30.27;22.77;;;10.90;99.90;;;;;;5055607;28;20025;-65
2023/10/19 08:08:33;;;;;;;30.48;22.88;;;10.80;99.90;;;;;;5055495;28;20067;-64
2023/10/19 08:11:00;;;;;;;31.00;23.15;;;10.80;99.90;;;;;;5055890;28;20433;-65
2023/10/19 08:13:26;;;;;;;31.77;22.92;;;10.80;99.90;;;;;;5073559;28;20031;-64
2023/10/19 08:15:52;;;;;;;31.50;23.50;;;10.90;99.90;;;;;;5073514;28;20020;-65
2023/10/19 08:18:18;;;;;;;30.40;21.90;;;11.00;99.90;;;;;;5073272;28;20040;-65
2023/10/19 08:20:49;;;;;;;28.00;23.17;;;11.00;99.90;;;;;;5055446;28;20078;-65
2023/10/19 08:23:16;;;;;;;28.20;22.33;;;11.20;99.90;;;;;;5055991;28;20112;-65
2023/10/19 08:25:44;;;;;;;27.90;22.25;;;11.30;99.90;;;;;;5077030;28;20469;-65
2023/10/19 08:28:11;;;;;;;27.80;21.67;;;11.30;99.90;;;;;;5077203;28;20066;-65
2023/10/19 08:30:37;;;;;;;29.73;22.45;;;11.40;99.90;;;;;;5076788;28;20416;-65
2023/10/19 08:33:03;;;;;;;29.08;23.23;;;11.40;99.90;;;;;;5077297;28;20044;-65
2023/10/19 08:35:30;;;;;;;30.83;21.70;;;11.40;99.90;;;;;;5059024;28;20020;-65
2023/10/19 08:37:57;;;;;;;30.90;22.65;;;11.50;99.90;;;;;;5077116;28;20031;-64
2023/10/19 08:40:26;;;;;;;28.02;21.10;;;11.50;99.90;;;;;;5077003;28;20456;-64
2023/10/19 08:42:53;;;;;;;30.63;21.88;;;11.50;99.90;;;;;;5076921;28;20029;-64
2023/10/19 08:45:21;;;;;;;25.88;20.60;;;11.40;99.90;;;;;;5058936;28;20396;-65
2023/10/19 08:48:01;;;;;;;27.35;20.33;;;11.50;99.90;;;;;;5058523;28;20033;-65
2023/10/19 08:50:29;;;;;;;26.70;21.58;;;11.60;99.90;;;;;;5076978;28;20112;-65
2023/10/19 08:52:56;;;;;;;27.48;20.33;;;11.70;99.90;;;;;;5058781;28;20092;-64
2023/10/19 08:55:22;;;;;;;27.90;20.35;;;11.70;99.90;;;;;;5059349;28;20033;-65
2023/10/19 08:57:52;;;;;;;28.15;21.30;;;11.80;99.90;;;;;;5058704;28;20036;-65
2023/10/19 09:00:18;;;;;;;27.23;21.45;;;11.80;99.90;;;;;;5076947;28;20602;-65
2023/10/19 09:02:48;;;;;;;26.38;20.77;;;11.70;99.90;;;;;;5058608;28;20120;-65
2023/10/19 09:05:22;;;;;;;28.63;19.92;;;11.70;99.90;;;;;;5076792;28;20050;-65
2023/10/19 09:07:55;;;;;;;26.45;21.13;;;11.70;99.90;;;;;;5076608;28;20086;-65
2023/10/19 09:10:28;;;;;;;28.38;21.27;;;11.60;99.90;;;;;;5058432;28;20469;-65
2023/10/19 09:13:07;;;;;;;27.58;20.60;;;11.50;99.90;;;;;;5076604;28;20439;-65
2023/10/19 09:15:33;;;;;;;29.23;21.52;;;11.30;99.90;;;;;;5058721;28;20028;-65
2023/10/19 09:18:13;;;;;;;28.13;21.00;;;11.30;99.90;;;;;;5076658;28;20036;-65
2023/10/19 09:20:39;;;;;;;28.23;22.17;;;11.40;99.90;;;;;;5076629;28;20023;-64
2023/10/19 09:23:07;;;;;;;25.63;19.40;;;11.50;99.90;;;;;;5058485;28;20060;-65
2023/10/19 09:25:34;;;;;;;27.67;20.25;;;11.60;99.90;;;;;;5076270;28;20024;-65
2023/10/19 09:28:02;;;;;;;30.30;21.08;;;11.70;99.90;;;;;;5058021;28;20028;-66
2023/10/19 09:30:31;;;;;;;26.23;20.23;;;11.70;99.90;;;;;;5058075;28;20430;-67
2023/10/19 09:32:58;;;;;;;27.73;19.60;;;11.80;99.90;;;;;;5075972;28;20040;-65
2023/10/19 09:35:31;;;;;;;25.38;20.50;;;11.70;99.90;;;;;;5075416;28;20043;-64
2023/10/19 09:37:56;;;;;;;29.65;21.02;;;11.80;99.90;;;;;;5075932;28;20544;-65
2023/10/19 09:40:23;;;;;;;26.08;20.77;;;11.80;99.90;;;;;;5076002;28;20056;-64
2023/10/19 09:42:56;;;;;;;26.33;20.23;;;11.80;99.90;;;;;;5057982;28;20376;-64
2023/10/19 09:45:27;;;;;;;26.73;19.70;;;11.80;99.90;;;;;;5058105;28;20073;-65
2023/10/19 09:47:54;;;;;;;25.15;19.45;;;11.90;99.90;;;;;;5075772;28;20033;-65
2023/10/19 09:50:20;;;;;;;28.40;20.05;;;12.00;99.90;;;;;;5075674;28;20029;-65
2023/10/19 09:52:46;;;;;;;27.58;20.05;;;12.10;99.90;;;;;;5075359;28;20021;-65
2023/10/19 09:55:35;;;;;;;24.58;18.90;;;12.20;99.90;;;;;;5075439;28;20027;-65
2023/10/19 09:58:21;;;;;;;23.65;18.27;;;12.30;99.90;;;;;;5047853;28;20044;-65
2023/10/19 10:00:51;;;;;;;23.23;16.83;;;12.40;99.90;;;;;;5057675;28;20376;-65
2023/10/19 10:03:46;;;;;;;22.70;18.92;;;12.50;99.90;;;;;;5057389;28;20131;-65
2023/10/19 10:06:16;;;;;;;24.25;18.50;;;12.50;99.90;;;;;;5058128;28;20024;-65
2023/10/19 10:08:45;;;;;;;24.63;18.58;;;13.00;99.90;;;;;;5075417;28;20457;-65
2023/10/19 10:11:20;;;;;;;24.63;18.40;;;12.70;99.90;;;;;;5057657;28;20101;-65
2023/10/19 10:13:50;;;;;;;25.80;18.67;;;12.80;99.90;;;;;;5057081;28;20036;-65
2023/10/19 10:16:22;;;;;;;27.75;18.08;;;12.90;99.90;;;;;;5075366;28;20067;-65
2023/10/19 10:18:50;;;;;;;27.80;18.60;;;13.00;99.90;;;;;;5057199;28;20032;-65
2023/10/19 10:21:16;;;;;;;23.58;16.85;;;13.20;99.90;;;;;;5057002;28;20028;-65
2023/10/19 10:23:48;;;;;;;24.55;18.05;;;13.30;99.90;;;;;;5057170;28;20032;-65
2023/10/19 10:26:16;;;;;;;23.13;17.73;;;13.40;99.90;;;;;;5056880;28;20024;-65
2023/10/19 10:29:09;;;;;;;22.77;17.40;;;13.50;99.90;;;;;;5056500;28;20029;-66
2023/10/19 10:31:48;;;;;;;25.42;17.75;;;14.00;99.90;;;;;;5056999;28;20077;-65
2023/10/19 10:34:35;;;;;;;21.15;17.25;;;13.60;99.90;;;;;;5093259;28;20036;-65
2023/10/19 10:37:07;;;;;;;117.75;25.05;;;13.60;99.90;;;;;;5094631;28;20422;-65
2023/10/19 10:39:36;;;;;;;74.80;24.30;;;13.70;99.90;;;;;;5093617;28;20035;-65
2023/10/19 10:42:04;;;;;;;110.93;30.20;;;13.80;99.90;;;;;;5094926;28;20027;-65
2023/10/19 10:44:44;;;;;;;20.92;16.70;;;13.70;99.90;;;;;;5094944;28;20020;-65
2023/10/19 10:47:17;;;;;;;55.42;19.70;;;13.50;99.90;;;;;;5093976;28;20024;-65
2023/10/19 10:49:55;;;;;;;22.48;16.67;;;13.60;99.90;;;;;;5094658;28;20107;-65
2023/10/19 10:52:31;;;;;;;19.40;16.25;;;13.90;99.90;;;;;;5094595;28;20029;-65
2023/10/19 10:54:59;;;;;;;22.77;16.55;;;14.20;99.90;;;;;;5093300;28;20028;-66
2023/10/19 10:57:31;;;;;;;18.80;15.13;;;14.50;99.90;;;;;;5094695;28;20024;-65
2023/10/19 11:00:03;;;;;;;18.48;14.80;;;14.70;99.90;;;;;;5094637;28;20028;-65
2023/10/19 11:02:29;;;;;;;19.02;14.85;;;14.70;99.90;;;;;;5093307;28;20119;-66
2023/10/19 11:04:55;;;;;;;17.20;15.13;;;14.80;99.90;;;;;;5094666;28;20528;-66
2023/10/19 11:07:21;;;;;;;17.73;14.23;;;14.90;99.90;;;;;;5094112;28;20028;-66
2023/10/19 11:09:47;;;;;;;19.48;14.40;;;15.10;99.90;;;;;;5094460;28;20376;-65
2023/10/19 11:12:15;;;;;;;16.63;14.80;;;15.50;99.90;;;;;;5094896;28;20096;-64
2023/10/19 11:14:59;;;;;;;24.73;16.25;;;15.70;99.90;;;;;;5093211;28;20028;-65
2023/10/19 11:17:30;;;;;;;19.25;14.32;;;16.10;99.90;;;;;;5094333;28;20021;-65
2023/10/19 11:19:57;;;;;;;19.98;14.02;;;16.30;99.90;;;;;;5094381;28;20028;-65
2023/10/19 11:22:24;;;;;;;17.95;15.02;;;16.40;99.90;;;;;;5092950;28;20035;-64
2023/10/19 11:24:52;;;;;;;20.73;15.70;;;16.30;99.90;;;;;;5094164;28;20032;-65
2023/10/19 11:27:35;;;;;;;17.45;14.77;;;16.60;99.90;;;;;;5094206;28;20115;-65
2023/10/19 11:30:04;;;;;;;18.67;14.32;;;16.80;99.90;;;;;;5094062;28;20468;-65
2023/10/19 11:32:38;;;;;;;16.08;13.70;;;16.70;99.90;;;;;;5088410;28;20396;-65
2023/10/19 11:35:04;;;;;;;19.30;14.57;;;16.50;99.90;;;;;;5074829;28;20020;-65
2023/10/19 11:37:42;;;;;;;19.42;14.55;;;16.40;99.90;;;;;;5075341;28;20052;-65
2023/10/19 11:40:08;;;;;;;15.93;14.10;;;16.30;99.90;;;;;;5075292;28;20024;-65
2023/10/19 11:42:34;;;;;;;20.48;13.63;;;16.40;99.90;;;;;;5075444;28;20029;-59
2023/10/19 11:44:59;;;;;;;16.88;14.13;;;16.80;99.90;;;;;;5056163;28;20027;-58
2023/10/19 11:47:25;;;;;;;15.88;14.23;;;17.30;99.90;;;;;;5073869;28;20024;-65
2023/10/19 11:49:50;;;;;;;23.20;14.13;;;17.50;99.90;;;;;;5073959;28;20044;-66
2023/10/19 11:52:16;;;;;;;15.95;13.77;;;17.60;99.90;;;;;;5073902;28;20055;-66
2023/10/19 11:54:42;;;;;;;16.52;14.05;;;17.50;99.90;;;;;;5073722;28;20027;-65
2023/10/19 11:57:07;;;;;;;14.27;12.77;;;17.60;99.90;;;;;;5073575;28;20473;-65
2023/10/19 11:59:33;;;;;;;14.90;13.30;;;17.80;99.90;;;;;;5075935;28;20024;-65
2023/10/19 12:02:00;;;;;;;17.27;14.00;;;17.70;99.90;;;;;;5077694;28;20101;-65
2023/10/19 12:04:26;;;;;;;18.38;14.10;;;17.60;99.90;;;;;;5077838;28;20025;-65
2023/10/19 12:06:53;;;;;;;16.77;13.35;;;17.90;99.90;;;;;;5060192;28;20456;-65
2023/10/19 12:09:24;;;;;;;15.00;13.18;;;18.20;99.90;;;;;;5077970;28;20029;-65
2023/10/19 12:11:49;;;;;;;16.40;13.60;;;18.10;99.90;;;;;;5078520;28;20031;-66
2023/10/19 12:14:15;;;;;;;14.80;13.15;;;18.00;99.90;;;;;;5061107;28;20021;-65
2023/10/19 12:16:41;;;;;;;18.35;14.20;;;17.80;99.90;;;;;;5079532;28;20128;-73
2023/10/19 12:19:07;;;;;;;17.73;13.05;;;17.60;99.90;;;;;;5060432;28;20028;-65
2023/10/19 12:21:37;;;;;;;18.30;13.48;;;17.50;99.90;;;;;;5078898;28;20034;-67
2023/10/19 12:24:04;;;;;;;15.88;13.23;;;17.40;99.90;;;;;;5062457;28;20032;-66
2023/10/19 12:26:30;;;;;;;14.75;13.05;;;17.20;99.90;;;;;;5081623;28;20052;-65
2023/10/19 12:28:56;;;;;;;17.83;12.93;;;17.20;99.90;;;;;;5083394;28;20031;-65
2023/10/19 12:31:23;;;;;;;16.63;13.95;;;17.00;99.90;;;;;;5082553;28;20116;-66
2023/10/19 12:33:48;;;;;;;19.83;14.10;;;16.80;99.90;;;;;;5082228;28;20041;-66
2023/10/19 12:36:32;;;;;;;16.35;13.75;;;16.80;99.90;;;;;;5080846;28;20142;-65
2023/10/19 12:38:58;;;;;;;15.15;13.32;;;16.70;99.90;;;;;;5077382;28;20483;-66
2023/10/19 12:41:24;;;;;;;17.25;14.60;;;16.70;99.90;;;;;;5076538;28;20544;-65
2023/10/19 12:43:57;;;;;;;19.38;14.25;;;16.60;99.90;;;;;;5077173;28;20052;-65
2023/10/19 12:46:27;;;;;;;19.35;13.88;;;16.60;99.90;;;;;;5059261;28;20033;-65
2023/10/19 12:48:55;;;;;;;15.68;13.80;;;16.60;99.90;;;;;;5077093;28;20063;-65
2023/10/19 12:51:25;;;;;;;17.55;13.30;;;16.70;99.90;;;;;;5077031;28;20040;-65
2023/10/19 12:53:51;;;;;;;18.73;14.43;;;16.90;99.90;;;;;;5076955;28;20112;-65
2023/10/19 12:56:18;;;;;;;15.82;13.20;;;17.40;99.90;;;;;;5077593;28;20376;-66
2023/10/19 12:58:44;;;;;;;15.80;13.45;;;17.80;99.90;;;;;;5077684;28;20028;-66
2023/10/19 13:01:16;;;;;;;15.98;13.45;;;18.30;99.90;;;;;;5077760;28;20510;-65
2023/10/19 13:03:45;;;;;;;15.27;13.07;;;18.50;99.90;;;;;;5077995;28;20031;-65
2023/10/19 13:06:11;;;;;;;17.95;13.02;;;18.60;99.90;;;;;;5078186;28;20060;-66